sensor_id;sensor_type;location;lat;lon;timestamp;P1;durP1;ratioP1;P2;durP2;ratioP2
8514;SDS011;4295;51.024;7.000;2022-12-18T00:01:41;80.80;;;8.10;;
8514;SDS011;4295;51.024;7.000;2022-12-18T00:04:11;78.90;;;8.20;;
8514;SDS011;4295;51.024;7.000;2022-12-18T00:06:43;71.60;;;6.57;;
8514;SDS011;4295;51.024;7.000;2022-12-18T00:09:08;75.63;;;8.33;;
8514;SDS011;4295;51.024;7.000;2022-12-18T00:11:34;74.40;;;8.00;;
8514;SDS011;4295;51.024;7.000;2022-12-18T00:13:59;76.03;;;7.97;;
8514;SDS011;4295;51.024;7.000;2022-12-18T00:16:26;75.63;;;7.60;;
8514;SDS011;4295;51.024;7.000;2022-12-18T00:18:53;77.23;;;7.93;;
8514;SDS011;4295;51.024;7.000;2022-12-18T00:21:21;73.50;;;8.00;;
8514;SDS011;4295;51.024;7.000;2022-12-18T00:23:46;75.50;;;8.50;;
8514;SDS011;4295;51.024;7.000;2022-12-18T00:26:14;73.70;;;7.07;;
8514;SDS011;4295;51.024;7.000;2022-12-18T00:28:42;73.33;;;7.93;;
8514;SDS011;4295;51.024;7.000;2022-12-18T00:31:09;76.77;;;7.77;;
8514;SDS011;4295;51.024;7.000;2022-12-18T00:33:36;74.13;;;7.73;;
8514;SDS011;4295;51.024;7.000;2022-12-18T00:36:05;71.47;;;6.90;;
8514;SDS011;4295;51.024;7.000;2022-12-18T00:38:33;72.40;;;6.83;;
8514;SDS011;4295;51.024;7.000;2022-12-18T00:40:58;70.77;;;7.10;;
8514;SDS011;4295;51.024;7.000;2022-12-18T00:43:24;72.57;;;6.90;;
8514;SDS011;4295;51.024;7.000;2022-12-18T00:45:49;69.97;;;7.00;;
8514;SDS011;4295;51.024;7.000;2022-12-18T00:48:14;71.47;;;6.80;;
8514;SDS011;4295;51.024;7.000;2022-12-18T00:50:40;73.13;;;7.30;;
8514;SDS011;4295;51.024;7.000;2022-12-18T00:53:05;72.30;;;7.27;;
8514;SDS011;4295;51.024;7.000;2022-12-18T00:55:31;74.70;;;6.70;;
8514;SDS011;4295;51.024;7.000;2022-12-18T00:57:56;75.60;;;7.40;;
8514;SDS011;4295;51.024;7.000;2022-12-18T01:00:22;72.60;;;6.83;;
8514;SDS011;4295;51.024;7.000;2022-12-18T01:02:47;71.77;;;6.83;;
8514;SDS011;4295;51.024;7.000;2022-12-18T01:05:13;73.00;;;7.33;;
8514;SDS011;4295;51.024;7.000;2022-12-18T01:07:39;72.10;;;6.87;;
8514;SDS011;4295;51.024;7.000;2022-12-18T01:10:05;71.20;;;7.07;;
8514;SDS011;4295;51.024;7.000;2022-12-18T01:12:32;71.23;;;6.73;;
8514;SDS011;4295;51.024;7.000;2022-12-18T01:14:58;73.03;;;6.80;;
8514;SDS011;4295;51.024;7.000;2022-12-18T01:17:24;72.37;;;7.20;;
8514;SDS011;4295;51.024;7.000;2022-12-18T01:19:49;72.30;;;6.90;;
8514;SDS011;4295;51.024;7.000;2022-12-18T01:22:15;77.83;;;6.93;;
8514;SDS011;4295;51.024;7.000;2022-12-18T01:24:40;70.10;;;6.77;;
8514;SDS011;4295;51.024;7.000;2022-12-18T01:27:05;71.67;;;7.00;;
8514;SDS011;4295;51.024;7.000;2022-12-18T01:29:31;74.50;;;7.30;;
8514;SDS011;4295;51.024;7.000;2022-12-18T01:31:56;72.60;;;6.80;;
8514;SDS011;4295;51.024;7.000;2022-12-18T01:34:22;74.20;;;6.70;;
8514;SDS011;4295;51.024;7.000;2022-12-18T01:36:48;74.37;;;6.83;;
8514;SDS011;4295;51.024;7.000;2022-12-18T01:39:14;74.97;;;6.93;;
8514;SDS011;4295;51.024;7.000;2022-12-18T01:41:40;74.43;;;6.50;;
8514;SDS011;4295;51.024;7.000;2022-12-18T01:50:10;81.17;;;6.70;;
8514;SDS011;4295;51.024;7.000;2022-12-18T01:52:38;74.97;;;6.23;;
8514;SDS011;4295;51.024;7.000;2022-12-18T01:55:07;71.73;;;6.07;;
8514;SDS011;4295;51.024;7.000;2022-12-18T01:57:35;73.10;;;6.60;;
8514;SDS011;4295;51.024;7.000;2022-12-18T02:00:06;71.90;;;7.03;;
8514;SDS011;4295;51.024;7.000;2022-12-18T02:02:35;72.00;;;7.17;;
8514;SDS011;4295;51.024;7.000;2022-12-18T02:05:02;74.90;;;7.20;;
8514;SDS011;4295;51.024;7.000;2022-12-18T02:13:03;70.17;;;6.37;;
8514;SDS011;4295;51.024;7.000;2022-12-18T02:15:38;76.03;;;6.83;;
8514;SDS011;4295;51.024;7.000;2022-12-18T02:18:11;77.40;;;6.67;;
8514;SDS011;4295;51.024;7.000;2022-12-18T02:20:46;71.93;;;7.00;;
8514;SDS011;4295;51.024;7.000;2022-12-18T02:23:39;71.33;;;6.53;;
8514;SDS011;4295;51.024;7.000;2022-12-18T02:26:12;71.27;;;7.10;;
8514;SDS011;4295;51.024;7.000;2022-12-18T02:28:43;72.13;;;7.30;;
8514;SDS011;4295;51.024;7.000;2022-12-18T02:31:14;74.00;;;7.00;;
8514;SDS011;4295;51.024;7.000;2022-12-18T02:33:44;72.70;;;7.73;;
8514;SDS011;4295;51.024;7.000;2022-12-18T02:36:11;73.97;;;7.90;;
8514;SDS011;4295;51.024;7.000;2022-12-18T02:38:39;71.27;;;6.73;;
8514;SDS011;4295;51.024;7.000;2022-12-18T02:41:07;72.47;;;7.20;;
8514;SDS011;4295;51.024;7.000;2022-12-18T02:43:32;75.33;;;8.17;;
8514;SDS011;4295;51.024;7.000;2022-12-18T02:45:59;74.50;;;6.73;;
8514;SDS011;4295;51.024;7.000;2022-12-18T02:48:30;73.07;;;7.43;;
8514;SDS011;4295;51.024;7.000;2022-12-18T02:50:59;74.47;;;7.80;;
8514;SDS011;4295;51.024;7.000;2022-12-18T02:56:03;71.57;;;6.77;;
8514;SDS011;4295;51.024;7.000;2022-12-18T03:01:09;73.57;;;7.73;;
8514;SDS011;4295;51.024;7.000;2022-12-18T03:06:23;74.50;;;6.87;;
8514;SDS011;4295;51.024;7.000;2022-12-18T03:08:54;75.47;;;7.47;;
8514;SDS011;4295;51.024;7.000;2022-12-18T03:11:24;75.13;;;7.90;;
8514;SDS011;4295;51.024;7.000;2022-12-18T03:14:11;73.53;;;7.73;;
8514;SDS011;4295;51.024;7.000;2022-12-18T03:16:40;74.83;;;7.57;;
8514;SDS011;4295;51.024;7.000;2022-12-18T03:19:09;74.30;;;7.40;;
8514;SDS011;4295;51.024;7.000;2022-12-18T03:21:45;76.17;;;7.90;;
8514;SDS011;4295;51.024;7.000;2022-12-18T03:24:14;76.33;;;8.47;;
8514;SDS011;4295;51.024;7.000;2022-12-18T03:26:46;73.47;;;8.00;;
8514;SDS011;4295;51.024;7.000;2022-12-18T03:29:18;74.00;;;7.83;;
8514;SDS011;4295;51.024;7.000;2022-12-18T03:31:48;71.03;;;7.20;;
8514;SDS011;4295;51.024;7.000;2022-12-18T03:34:17;71.03;;;6.90;;
8514;SDS011;4295;51.024;7.000;2022-12-18T03:36:48;72.07;;;7.30;;
8514;SDS011;4295;51.024;7.000;2022-12-18T03:39:14;77.70;;;8.40;;
8514;SDS011;4295;51.024;7.000;2022-12-18T03:44:35;72.17;;;6.43;;
8514;SDS011;4295;51.024;7.000;2022-12-18T03:52:35;72.60;;;7.27;;
8514;SDS011;4295;51.024;7.000;2022-12-18T03:55:07;74.60;;;8.00;;
8514;SDS011;4295;51.024;7.000;2022-12-18T03:57:34;75.07;;;7.90;;
8514;SDS011;4295;51.024;7.000;2022-12-18T04:00:03;73.13;;;7.50;;
8514;SDS011;4295;51.024;7.000;2022-12-18T04:02:34;73.40;;;6.90;;
8514;SDS011;4295;51.024;7.000;2022-12-18T04:05:02;73.73;;;7.37;;
8514;SDS011;4295;51.024;7.000;2022-12-18T04:07:30;71.60;;;7.20;;
8514;SDS011;4295;51.024;7.000;2022-12-18T04:09:56;72.60;;;7.60;;
8514;SDS011;4295;51.024;7.000;2022-12-18T04:12:24;74.80;;;7.70;;
8514;SDS011;4295;51.024;7.000;2022-12-18T04:14:51;72.80;;;7.83;;
8514;SDS011;4295;51.024;7.000;2022-12-18T04:17:17;73.90;;;8.07;;
8514;SDS011;4295;51.024;7.000;2022-12-18T04:19:42;74.40;;;7.00;;
8514;SDS011;4295;51.024;7.000;2022-12-18T04:22:08;72.37;;;7.50;;
8514;SDS011;4295;51.024;7.000;2022-12-18T04:24:35;73.63;;;7.60;;
8514;SDS011;4295;51.024;7.000;2022-12-18T04:27:01;68.77;;;6.43;;
8514;SDS011;4295;51.024;7.000;2022-12-18T04:29:27;74.37;;;7.70;;
8514;SDS011;4295;51.024;7.000;2022-12-18T04:31:52;71.57;;;7.90;;
8514;SDS011;4295;51.024;7.000;2022-12-18T04:34:17;70.90;;;7.10;;
8514;SDS011;4295;51.024;7.000;2022-12-18T04:36:43;71.83;;;7.10;;
8514;SDS011;4295;51.024;7.000;2022-12-18T04:39:08;69.30;;;6.23;;
8514;SDS011;4295;51.024;7.000;2022-12-18T04:41:33;70.17;;;6.47;;
8514;SDS011;4295;51.024;7.000;2022-12-18T04:43:59;72.87;;;7.60;;
8514;SDS011;4295;51.024;7.000;2022-12-18T04:46:24;73.47;;;7.50;;
8514;SDS011;4295;51.024;7.000;2022-12-18T04:48:49;71.07;;;7.30;;
8514;SDS011;4295;51.024;7.000;2022-12-18T04:51:15;74.00;;;6.80;;
8514;SDS011;4295;51.024;7.000;2022-12-18T04:53:40;71.53;;;6.33;;
8514;SDS011;4295;51.024;7.000;2022-12-18T04:56:10;70.60;;;6.83;;
8514;SDS011;4295;51.024;7.000;2022-12-18T04:58:37;73.30;;;7.37;;
8514;SDS011;4295;51.024;7.000;2022-12-18T05:01:04;71.00;;;6.93;;
8514;SDS011;4295;51.024;7.000;2022-12-18T05:03:30;69.97;;;6.50;;
8514;SDS011;4295;51.024;7.000;2022-12-18T05:05:56;76.50;;;7.20;;
8514;SDS011;4295;51.024;7.000;2022-12-18T05:08:22;69.10;;;6.90;;
8514;SDS011;4295;51.024;7.000;2022-12-18T05:10:48;72.57;;;6.93;;
8514;SDS011;4295;51.024;7.000;2022-12-18T05:13:14;72.37;;;7.63;;
8514;SDS011;4295;51.024;7.000;2022-12-18T05:15:39;71.60;;;6.63;;
8514;SDS011;4295;51.024;7.000;2022-12-18T05:18:06;68.33;;;6.30;;
8514;SDS011;4295;51.024;7.000;2022-12-18T05:20:32;69.57;;;6.63;;
8514;SDS011;4295;51.024;7.000;2022-12-18T05:22:57;72.60;;;6.60;;
8514;SDS011;4295;51.024;7.000;2022-12-18T05:25:23;69.20;;;6.37;;
8514;SDS011;4295;51.024;7.000;2022-12-18T05:27:48;70.70;;;6.80;;
8514;SDS011;4295;51.024;7.000;2022-12-18T05:30:14;71.80;;;6.97;;
8514;SDS011;4295;51.024;7.000;2022-12-18T05:32:40;73.63;;;6.70;;
8514;SDS011;4295;51.024;7.000;2022-12-18T05:35:07;70.00;;;6.30;;
8514;SDS011;4295;51.024;7.000;2022-12-18T05:37:34;71.27;;;6.70;;
8514;SDS011;4295;51.024;7.000;2022-12-18T05:40:00;71.20;;;7.10;;
8514;SDS011;4295;51.024;7.000;2022-12-18T05:42:25;70.93;;;6.30;;
8514;SDS011;4295;51.024;7.000;2022-12-18T05:44:51;70.63;;;7.00;;
8514;SDS011;4295;51.024;7.000;2022-12-18T05:47:16;73.20;;;7.20;;
8514;SDS011;4295;51.024;7.000;2022-12-18T05:49:41;69.87;;;6.30;;
8514;SDS011;4295;51.024;7.000;2022-12-18T05:52:07;69.27;;;6.70;;
8514;SDS011;4295;51.024;7.000;2022-12-18T05:54:32;70.90;;;6.30;;
8514;SDS011;4295;51.024;7.000;2022-12-18T05:56:58;69.03;;;6.47;;
8514;SDS011;4295;51.024;7.000;2022-12-18T05:59:23;68.20;;;6.20;;
8514;SDS011;4295;51.024;7.000;2022-12-18T06:01:49;70.20;;;6.40;;
8514;SDS011;4295;51.024;7.000;2022-12-18T06:04:14;72.13;;;7.00;;
8514;SDS011;4295;51.024;7.000;2022-12-18T06:06:39;69.80;;;6.20;;
8514;SDS011;4295;51.024;7.000;2022-12-18T06:09:05;72.80;;;6.50;;
8514;SDS011;4295;51.024;7.000;2022-12-18T06:11:33;70.30;;;6.70;;
8514;SDS011;4295;51.024;7.000;2022-12-18T06:13:59;69.47;;;6.20;;
8514;SDS011;4295;51.024;7.000;2022-12-18T06:16:26;69.83;;;6.20;;
8514;SDS011;4295;51.024;7.000;2022-12-18T06:18:52;69.67;;;6.40;;
8514;SDS011;4295;51.024;7.000;2022-12-18T06:21:17;70.27;;;7.27;;
8514;SDS011;4295;51.024;7.000;2022-12-18T06:23:43;71.53;;;6.80;;
8514;SDS011;4295;51.024;7.000;2022-12-18T06:26:09;74.13;;;6.77;;
8514;SDS011;4295;51.024;7.000;2022-12-18T06:28:37;67.97;;;6.80;;
8514;SDS011;4295;51.024;7.000;2022-12-18T06:31:03;70.73;;;6.20;;
8514;SDS011;4295;51.024;7.000;2022-12-18T06:33:29;71.20;;;6.40;;
8514;SDS011;4295;51.024;7.000;2022-12-18T06:35:58;73.93;;;6.67;;
8514;SDS011;4295;51.024;7.000;2022-12-18T06:38:26;70.80;;;6.40;;
8514;SDS011;4295;51.024;7.000;2022-12-18T06:40:51;69.73;;;6.87;;
8514;SDS011;4295;51.024;7.000;2022-12-18T06:43:17;72.37;;;7.20;;
8514;SDS011;4295;51.024;7.000;2022-12-18T06:45:42;70.70;;;6.70;;
8514;SDS011;4295;51.024;7.000;2022-12-18T06:48:07;71.03;;;5.87;;
8514;SDS011;4295;51.024;7.000;2022-12-18T06:50:33;74.53;;;7.63;;
8514;SDS011;4295;51.024;7.000;2022-12-18T06:52:58;73.80;;;7.80;;
8514;SDS011;4295;51.024;7.000;2022-12-18T06:55:24;69.63;;;6.83;;
8514;SDS011;4295;51.024;7.000;2022-12-18T06:57:49;72.50;;;6.90;;
8514;SDS011;4295;51.024;7.000;2022-12-18T07:00:15;72.80;;;7.40;;
8514;SDS011;4295;51.024;7.000;2022-12-18T07:02:41;72.73;;;7.03;;
8514;SDS011;4295;51.024;7.000;2022-12-18T07:05:06;73.07;;;6.67;;
8514;SDS011;4295;51.024;7.000;2022-12-18T07:07:33;73.27;;;7.13;;
8514;SDS011;4295;51.024;7.000;2022-12-18T07:09:59;70.20;;;7.47;;
8514;SDS011;4295;51.024;7.000;2022-12-18T07:12:24;72.33;;;7.40;;
8514;SDS011;4295;51.024;7.000;2022-12-18T07:14:51;74.53;;;8.17;;
8514;SDS011;4295;51.024;7.000;2022-12-18T07:17:17;70.70;;;7.50;;
8514;SDS011;4295;51.024;7.000;2022-12-18T07:19:42;72.77;;;7.30;;
8514;SDS011;4295;51.024;7.000;2022-12-18T07:22:07;69.77;;;6.30;;
8514;SDS011;4295;51.024;7.000;2022-12-18T07:24:33;72.10;;;6.90;;
8514;SDS011;4295;51.024;7.000;2022-12-18T07:26:59;68.63;;;6.93;;
8514;SDS011;4295;51.024;7.000;2022-12-18T07:29:24;74.40;;;8.17;;
8514;SDS011;4295;51.024;7.000;2022-12-18T07:31:50;74.97;;;7.50;;
8514;SDS011;4295;51.024;7.000;2022-12-18T07:34:15;72.30;;;7.77;;
8514;SDS011;4295;51.024;7.000;2022-12-18T07:36:40;70.07;;;7.90;;
8514;SDS011;4295;51.024;7.000;2022-12-18T07:39:06;74.70;;;7.80;;
8514;SDS011;4295;51.024;7.000;2022-12-18T07:41:32;75.73;;;8.97;;
8514;SDS011;4295;51.024;7.000;2022-12-18T07:43:57;74.53;;;8.50;;
8514;SDS011;4295;51.024;7.000;2022-12-18T07:46:22;73.70;;;8.10;;
8514;SDS011;4295;51.024;7.000;2022-12-18T07:48:48;76.27;;;9.10;;
8514;SDS011;4295;51.024;7.000;2022-12-18T07:51:13;75.10;;;7.80;;
8514;SDS011;4295;51.024;7.000;2022-12-18T07:53:39;71.00;;;7.53;;
8514;SDS011;4295;51.024;7.000;2022-12-18T07:56:06;74.00;;;7.40;;
8514;SDS011;4295;51.024;7.000;2022-12-18T07:58:34;77.03;;;9.25;;
8514;SDS011;4295;51.024;7.000;2022-12-18T08:01:07;72.83;;;7.90;;
8514;SDS011;4295;51.024;7.000;2022-12-18T08:03:33;78.40;;;8.60;;
8514;SDS011;4295;51.024;7.000;2022-12-18T08:06:03;72.43;;;7.40;;
8514;SDS011;4295;51.024;7.000;2022-12-18T08:08:30;79.03;;;8.80;;
8514;SDS011;4295;51.024;7.000;2022-12-18T08:10:55;75.77;;;8.40;;
8514;SDS011;4295;51.024;7.000;2022-12-18T08:13:21;78.77;;;9.10;;
8514;SDS011;4295;51.024;7.000;2022-12-18T08:15:57;73.63;;;7.40;;
8514;SDS011;4295;51.024;7.000;2022-12-18T08:18:31;74.03;;;7.20;;
8514;SDS011;4295;51.024;7.000;2022-12-18T08:20:57;72.60;;;7.73;;
8514;SDS011;4295;51.024;7.000;2022-12-18T08:23:23;79.50;;;8.37;;
8514;SDS011;4295;51.024;7.000;2022-12-18T08:25:48;74.50;;;8.90;;
8514;SDS011;4295;51.024;7.000;2022-12-18T08:28:14;72.87;;;8.60;;
8514;SDS011;4295;51.024;7.000;2022-12-18T08:30:41;72.70;;;8.30;;
8514;SDS011;4295;51.024;7.000;2022-12-18T08:33:07;73.30;;;8.97;;
8514;SDS011;4295;51.024;7.000;2022-12-18T08:35:34;74.47;;;7.77;;
8514;SDS011;4295;51.024;7.000;2022-12-18T08:38:01;76.70;;;8.50;;
8514;SDS011;4295;51.024;7.000;2022-12-18T08:40:27;74.37;;;8.20;;
8514;SDS011;4295;51.024;7.000;2022-12-18T08:42:52;71.80;;;8.10;;
8514;SDS011;4295;51.024;7.000;2022-12-18T08:45:36;76.30;;;8.10;;
8514;SDS011;4295;51.024;7.000;2022-12-18T08:48:02;74.87;;;8.30;;
8514;SDS011;4295;51.024;7.000;2022-12-18T08:50:27;75.97;;;8.97;;
8514;SDS011;4295;51.024;7.000;2022-12-18T08:52:52;69.93;;;7.40;;
8514;SDS011;4295;51.024;7.000;2022-12-18T08:55:18;71.10;;;7.47;;
8514;SDS011;4295;51.024;7.000;2022-12-18T08:57:43;71.07;;;7.50;;
8514;SDS011;4295;51.024;7.000;2022-12-18T09:00:13;71.70;;;8.27;;
8514;SDS011;4295;51.024;7.000;2022-12-18T09:02:38;71.20;;;7.80;;
8514;SDS011;4295;51.024;7.000;2022-12-18T09:05:04;78.80;;;8.60;;
8514;SDS011;4295;51.024;7.000;2022-12-18T09:07:30;72.60;;;8.00;;
8514;SDS011;4295;51.024;7.000;2022-12-18T09:09:55;74.37;;;8.70;;
8514;SDS011;4295;51.024;7.000;2022-12-18T09:12:20;73.60;;;8.33;;
8514;SDS011;4295;51.024;7.000;2022-12-18T09:14:45;71.80;;;8.03;;
8514;SDS011;4295;51.024;7.000;2022-12-18T09:17:11;71.17;;;7.30;;
8514;SDS011;4295;51.024;7.000;2022-12-18T09:19:36;72.63;;;7.47;;
8514;SDS011;4295;51.024;7.000;2022-12-18T09:22:01;72.83;;;7.40;;
8514;SDS011;4295;51.024;7.000;2022-12-18T09:24:27;72.33;;;8.03;;
8514;SDS011;4295;51.024;7.000;2022-12-18T09:26:53;79.40;;;9.07;;
8514;SDS011;4295;51.024;7.000;2022-12-18T09:29:19;74.30;;;8.77;;
8514;SDS011;4295;51.024;7.000;2022-12-18T09:31:45;73.70;;;8.77;;
8514;SDS011;4295;51.024;7.000;2022-12-18T09:34:11;76.03;;;9.70;;
8514;SDS011;4295;51.024;7.000;2022-12-18T09:36:37;73.87;;;8.40;;
8514;SDS011;4295;51.024;7.000;2022-12-18T09:39:03;77.07;;;9.40;;
8514;SDS011;4295;51.024;7.000;2022-12-18T09:41:42;79.17;;;9.17;;
8514;SDS011;4295;51.024;7.000;2022-12-18T09:44:28;77.20;;;8.47;;
8514;SDS011;4295;51.024;7.000;2022-12-18T09:49:45;78.53;;;9.47;;
8514;SDS011;4295;51.024;7.000;2022-12-18T09:52:23;75.67;;;8.97;;
8514;SDS011;4295;51.024;7.000;2022-12-18T09:54:50;74.97;;;8.67;;
8514;SDS011;4295;51.024;7.000;2022-12-18T09:57:20;73.80;;;8.00;;
8514;SDS011;4295;51.024;7.000;2022-12-18T10:00:03;76.53;;;8.20;;
8514;SDS011;4295;51.024;7.000;2022-12-18T10:02:40;73.83;;;7.87;;
8514;SDS011;4295;51.024;7.000;2022-12-18T10:05:13;77.77;;;8.97;;
8514;SDS011;4295;51.024;7.000;2022-12-18T10:11:00;75.90;;;7.73;;
8514;SDS011;4295;51.024;7.000;2022-12-18T10:13:28;75.33;;;8.20;;
8514;SDS011;4295;51.024;7.000;2022-12-18T10:18:29;73.37;;;7.63;;
8514;SDS011;4295;51.024;7.000;2022-12-18T10:21:01;74.80;;;8.67;;
8514;SDS011;4295;51.024;7.000;2022-12-18T10:26:33;73.60;;;7.00;;
8514;SDS011;4295;51.024;7.000;2022-12-18T10:28:58;76.77;;;8.67;;
8514;SDS011;4295;51.024;7.000;2022-12-18T10:31:24;74.07;;;7.57;;
8514;SDS011;4295;51.024;7.000;2022-12-18T10:33:50;75.67;;;8.50;;
8514;SDS011;4295;51.024;7.000;2022-12-18T10:36:18;77.13;;;7.70;;
8514;SDS011;4295;51.024;7.000;2022-12-18T10:38:43;75.17;;;8.13;;
8514;SDS011;4295;51.024;7.000;2022-12-18T10:43:44;74.80;;;8.57;;
8514;SDS011;4295;51.024;7.000;2022-12-18T10:51:06;75.43;;;7.80;;
8514;SDS011;4295;51.024;7.000;2022-12-18T10:53:34;76.50;;;8.00;;
8514;SDS011;4295;51.024;7.000;2022-12-18T10:56:02;77.20;;;8.10;;
8514;SDS011;4295;51.024;7.000;2022-12-18T10:58:37;76.67;;;8.80;;
8514;SDS011;4295;51.024;7.000;2022-12-18T11:01:14;76.10;;;8.20;;
8514;SDS011;4295;51.024;7.000;2022-12-18T11:03:45;75.60;;;7.67;;
8514;SDS011;4295;51.024;7.000;2022-12-18T11:06:17;76.57;;;8.57;;
8514;SDS011;4295;51.024;7.000;2022-12-18T11:09:32;76.53;;;8.10;;
8514;SDS011;4295;51.024;7.000;2022-12-18T11:11:52;76.70;;;8.40;;
8514;SDS011;4295;51.024;7.000;2022-12-18T11:14:24;81.73;;;9.93;;
8514;SDS011;4295;51.024;7.000;2022-12-18T11:16:57;76.50;;;8.40;;
8514;SDS011;4295;51.024;7.000;2022-12-18T11:19:30;87.27;;;10.20;;
8514;SDS011;4295;51.024;7.000;2022-12-18T11:21:58;78.60;;;9.10;;
8514;SDS011;4295;51.024;7.000;2022-12-18T11:26:57;81.50;;;8.90;;
8514;SDS011;4295;51.024;7.000;2022-12-18T11:34:49;79.10;;;8.60;;
8514;SDS011;4295;51.024;7.000;2022-12-18T11:37:19;88.00;;;10.20;;
8514;SDS011;4295;51.024;7.000;2022-12-18T11:39:46;77.97;;;8.93;;
8514;SDS011;4295;51.024;7.000;2022-12-18T11:42:27;76.00;;;8.53;;
8514;SDS011;4295;51.024;7.000;2022-12-18T11:45:02;80.03;;;9.53;;
8514;SDS011;4295;51.024;7.000;2022-12-18T11:47:39;79.37;;;8.97;;
8514;SDS011;4295;51.024;7.000;2022-12-18T11:50:13;80.37;;;9.37;;
8514;SDS011;4295;51.024;7.000;2022-12-18T11:52:42;79.30;;;9.63;;
8514;SDS011;4295;51.024;7.000;2022-12-18T11:55:31;87.50;;;9.83;;
8514;SDS011;4295;51.024;7.000;2022-12-18T11:58:15;80.50;;;9.73;;
8514;SDS011;4295;51.024;7.000;2022-12-18T12:01:32;79.23;;;9.70;;
8514;SDS011;4295;51.024;7.000;2022-12-18T12:14:36;77.83;;;9.40;;
8514;SDS011;4295;51.024;7.000;2022-12-18T12:20:08;79.53;;;9.83;;
8514;SDS011;4295;51.024;7.000;2022-12-18T12:22:54;81.80;;;10.47;;
8514;SDS011;4295;51.024;7.000;2022-12-18T12:36:22;84.93;;;10.20;;
8514;SDS011;4295;51.024;7.000;2022-12-18T12:38:54;82.63;;;10.47;;
8514;SDS011;4295;51.024;7.000;2022-12-18T12:41:23;82.70;;;11.73;;
8514;SDS011;4295;51.024;7.000;2022-12-18T12:44:15;80.63;;;9.57;;
8514;SDS011;4295;51.024;7.000;2022-12-18T12:46:47;78.20;;;10.43;;
8514;SDS011;4295;51.024;7.000;2022-12-18T12:49:15;83.77;;;11.50;;
8514;SDS011;4295;51.024;7.000;2022-12-18T12:51:49;77.90;;;9.70;;
8514;SDS011;4295;51.024;7.000;2022-12-18T12:54:23;85.83;;;10.57;;
8514;SDS011;4295;51.024;7.000;2022-12-18T12:59:41;81.00;;;10.50;;
8514;SDS011;4295;51.024;7.000;2022-12-18T13:12:51;80.63;;;11.20;;
8514;SDS011;4295;51.024;7.000;2022-12-18T13:18:06;83.07;;;12.20;;
8514;SDS011;4295;51.024;7.000;2022-12-18T13:20:40;83.77;;;11.63;;
8514;SDS011;4295;51.024;7.000;2022-12-18T13:25:49;82.20;;;11.70;;
8514;SDS011;4295;51.024;7.000;2022-12-18T13:30:58;84.37;;;11.40;;
8514;SDS011;4295;51.024;7.000;2022-12-18T13:46:58;82.37;;;10.97;;
8514;SDS011;4295;51.024;7.000;2022-12-18T13:49:43;83.23;;;12.83;;
8514;SDS011;4295;51.024;7.000;2022-12-18T13:52:22;84.10;;;11.97;;
8514;SDS011;4295;51.024;7.000;2022-12-18T13:54:51;87.33;;;11.80;;
8514;SDS011;4295;51.024;7.000;2022-12-18T13:57:29;81.73;;;11.07;;
8514;SDS011;4295;51.024;7.000;2022-12-18T13:59:56;87.37;;;12.27;;
8514;SDS011;4295;51.024;7.000;2022-12-18T14:02:37;81.47;;;11.73;;
8514;SDS011;4295;51.024;7.000;2022-12-18T14:05:03;82.57;;;11.73;;
8514;SDS011;4295;51.024;7.000;2022-12-18T14:07:29;83.07;;;11.80;;
8514;SDS011;4295;51.024;7.000;2022-12-18T14:09:56;83.23;;;11.30;;
8514;SDS011;4295;51.024;7.000;2022-12-18T14:12:25;82.87;;;12.50;;
8514;SDS011;4295;51.024;7.000;2022-12-18T14:15:31;78.90;;;11.53;;
8514;SDS011;4295;51.024;7.000;2022-12-18T14:18:00;87.50;;;12.57;;
8514;SDS011;4295;51.024;7.000;2022-12-18T14:20:30;83.10;;;12.00;;
8514;SDS011;4295;51.024;7.000;2022-12-18T14:22:57;82.43;;;10.67;;
8514;SDS011;4295;51.024;7.000;2022-12-18T14:25:28;84.10;;;11.60;;
8514;SDS011;4295;51.024;7.000;2022-12-18T14:28:12;82.03;;;11.40;;
8514;SDS011;4295;51.024;7.000;2022-12-18T14:30:41;82.27;;;11.00;;
8514;SDS011;4295;51.024;7.000;2022-12-18T14:35:33;88.20;;;11.70;;
8514;SDS011;4295;51.024;7.000;2022-12-18T14:38:25;81.10;;;11.37;;
8514;SDS011;4295;51.024;7.000;2022-12-18T14:43:31;85.30;;;12.83;;
8514;SDS011;4295;51.024;7.000;2022-12-18T14:45:58;84.90;;;12.00;;
8514;SDS011;4295;51.024;7.000;2022-12-18T14:48:42;86.07;;;11.80;;
8514;SDS011;4295;51.024;7.000;2022-12-18T14:51:15;80.67;;;12.23;;
8514;SDS011;4295;51.024;7.000;2022-12-18T14:54:03;83.97;;;11.93;;
8514;SDS011;4295;51.024;7.000;2022-12-18T14:56:43;84.37;;;11.43;;
8514;SDS011;4295;51.024;7.000;2022-12-18T14:59:15;83.70;;;11.00;;
8514;SDS011;4295;51.024;7.000;2022-12-18T15:07:14;84.53;;;11.63;;
8514;SDS011;4295;51.024;7.000;2022-12-18T15:09:41;89.13;;;12.90;;
8514;SDS011;4295;51.024;7.000;2022-12-18T15:15:00;85.47;;;11.80;;
8514;SDS011;4295;51.024;7.000;2022-12-18T15:17:27;79.40;;;10.83;;
8514;SDS011;4295;51.024;7.000;2022-12-18T15:19:57;83.80;;;12.20;;
8514;SDS011;4295;51.024;7.000;2022-12-18T15:22:29;85.80;;;11.43;;
8514;SDS011;4295;51.024;7.000;2022-12-18T15:25:19;88.63;;;12.70;;
8514;SDS011;4295;51.024;7.000;2022-12-18T15:33:34;86.10;;;12.33;;
8514;SDS011;4295;51.024;7.000;2022-12-18T15:36:07;82.13;;;12.27;;
8514;SDS011;4295;51.024;7.000;2022-12-18T15:38:35;82.83;;;11.00;;
8514;SDS011;4295;51.024;7.000;2022-12-18T15:41:01;86.07;;;12.23;;
8514;SDS011;4295;51.024;7.000;2022-12-18T15:43:27;80.70;;;11.87;;
8514;SDS011;4295;51.024;7.000;2022-12-18T15:45:58;84.37;;;12.10;;
8514;SDS011;4295;51.024;7.000;2022-12-18T15:48:24;84.20;;;13.50;;
8514;SDS011;4295;51.024;7.000;2022-12-18T15:50:50;84.90;;;11.83;;
8514;SDS011;4295;51.024;7.000;2022-12-18T15:53:19;80.90;;;12.10;;
8514;SDS011;4295;51.024;7.000;2022-12-18T15:55:44;86.03;;;13.20;;
8514;SDS011;4295;51.024;7.000;2022-12-18T15:58:28;86.37;;;12.10;;
8514;SDS011;4295;51.024;7.000;2022-12-18T16:00:53;88.60;;;13.83;;
8514;SDS011;4295;51.024;7.000;2022-12-18T16:03:22;88.77;;;14.83;;
8514;SDS011;4295;51.024;7.000;2022-12-18T16:05:47;89.20;;;14.13;;
8514;SDS011;4295;51.024;7.000;2022-12-18T16:08:12;85.97;;;13.83;;
8514;SDS011;4295;51.024;7.000;2022-12-18T16:10:37;88.63;;;12.43;;
8514;SDS011;4295;51.024;7.000;2022-12-18T16:13:03;89.07;;;13.40;;
8514;SDS011;4295;51.024;7.000;2022-12-18T16:15:28;86.23;;;12.20;;
8514;SDS011;4295;51.024;7.000;2022-12-18T16:17:53;90.93;;;13.80;;
8514;SDS011;4295;51.024;7.000;2022-12-18T16:20:21;93.03;;;15.70;;
8514;SDS011;4295;51.024;7.000;2022-12-18T16:22:47;84.77;;;12.90;;
8514;SDS011;4295;51.024;7.000;2022-12-18T16:25:20;91.70;;;13.70;;
8514;SDS011;4295;51.024;7.000;2022-12-18T16:27:46;85.43;;;12.40;;
8514;SDS011;4295;51.024;7.000;2022-12-18T16:30:13;92.33;;;14.73;;
8514;SDS011;4295;51.024;7.000;2022-12-18T16:32:46;88.77;;;14.63;;
8514;SDS011;4295;51.024;7.000;2022-12-18T16:35:12;93.33;;;15.33;;
8514;SDS011;4295;51.024;7.000;2022-12-18T16:37:39;86.90;;;14.90;;
8514;SDS011;4295;51.024;7.000;2022-12-18T16:40:09;89.53;;;14.60;;
8514;SDS011;4295;51.024;7.000;2022-12-18T16:42:38;89.67;;;15.43;;
8514;SDS011;4295;51.024;7.000;2022-12-18T16:45:05;94.73;;;15.83;;
8514;SDS011;4295;51.024;7.000;2022-12-18T16:47:31;97.67;;;13.50;;
8514;SDS011;4295;51.024;7.000;2022-12-18T16:49:57;88.90;;;14.80;;
8514;SDS011;4295;51.024;7.000;2022-12-18T16:52:23;91.27;;;15.03;;
8514;SDS011;4295;51.024;7.000;2022-12-18T16:54:48;99.53;;;16.48;;
8514;SDS011;4295;51.024;7.000;2022-12-18T16:57:15;89.67;;;14.87;;
8514;SDS011;4295;51.024;7.000;2022-12-18T16:59:42;92.50;;;14.73;;
8514;SDS011;4295;51.024;7.000;2022-12-18T17:02:16;94.50;;;15.10;;
8514;SDS011;4295;51.024;7.000;2022-12-18T17:04:43;91.30;;;14.83;;
8514;SDS011;4295;51.024;7.000;2022-12-18T17:07:10;102.90;;;15.27;;
8514;SDS011;4295;51.024;7.000;2022-12-18T17:09:36;93.40;;;17.30;;
8514;SDS011;4295;51.024;7.000;2022-12-18T17:12:02;91.13;;;14.37;;
8514;SDS011;4295;51.024;7.000;2022-12-18T17:14:28;90.07;;;15.50;;
8514;SDS011;4295;51.024;7.000;2022-12-18T17:16:53;95.60;;;14.80;;
8514;SDS011;4295;51.024;7.000;2022-12-18T17:19:21;93.73;;;15.07;;
8514;SDS011;4295;51.024;7.000;2022-12-18T17:21:47;90.53;;;15.27;;